Poston, AZ

6:29 AM MST on July 29, 2014 (GMT -0700)
RAWS RICE VALLEY CA US (MRVYC1) Elev 831 ft | 34.06 °N, 114.73 °W | Change Station

Current weather conditions updated 39 minutes ago

Clear
Clear
83 °F
Feels Like 83 °F
N
2
Wind Variable Wind from SE
Gusts 5.0 mph

Today is forecast to be Warmer than yesterday.

Today
High -- | Low -- °F
--% Chance of Precip.
Yesterday
High -- | Low -- °F
Precip. -- in
5:47 AM 7:40 PM
Waxing Crescent, 6% visible
Pressure 29.84 in
Visibility 10.0 miles
Clouds Clear
Heat Index 83 °F
Dew Point 59 °F
Humidity 45%
Rainfall 0.00 in
Snow Depth Not available.
UV 0 out of 12
Pollen 5.90 out of 12
Air Quality Not available.
Flu Activity Not available.
METAR KEED 291256Z AUTO 28005KT 10SM CLR 28/22 A2995 RMK AO2 SLP105 T02830217 $

More Conditions Fewer Conditions

Pressure 29.84 in
Visibility 10.0 miles
Clouds Clear
Heat Index 83 °F
Dew Point 59 °F
Humidity 45%
Rainfall 0.00 in
Snow Depth Not available.
UV 0 out of 12
Pollen 5.90 out of 12
Air Quality Not available.
Flu Activity Not available.
METAR KEED 291256Z AUTO 28005KT 10SM CLR 28/22 A2995 RMK AO2 SLP105 T02830217 $

More Conditions Fewer Conditions

10-Day Weather Forecast

Almanac

Astronomy

Jul. 29, 2014 Rise Set
Actual Time 5:47 AM MST 7:40 PM MST
Civil Twilight 5:19 AM MST 8:08 PM MST
Nautical Twilight 4:46 AM MST 8:41 PM MST
Astronomical Twilight 4:10 AM MST 9:17 PM MST
Moon 8:17 AM MST 9:06 PM MST
Length of Visible Light 14h 48m
Length of Day
13h 53m
Tomorrow will be 1m 31s shorter.
Waxing Crescent, 6% of the Moon is Illuminated
Today
Waxing Crescent
Aug 3
First Quarter
Aug 10
Full
Aug 17
Last Quarter
Aug 25
New

Today's Extremes

State Highs State Lows

Community

WunderPhotos

Upload Photos

1,738,713 photos uploaded!

Nearby

Snow Depth

Station Depth Elevation
White Horse Lake 0 in 7180 ft
Snowslide Canyon 0 in 9730 ft
Mormon Mountain 0 in 7500 ft
Workman Creek 1 in 6900 ft
Heber 0 in 7640 ft

Earthquake Activity

City Distance Mag. Time & Date
Alberto Oviedo Mota, Mexico 125 miles 3.0 9:14 AM MST
2014-07-22
Minimum magnitude displayed is 2.5.

Coastal Water Temperatures

Place Temperature
No Stations Reporting

Nearby Weather Stations

Station Location Temp. Heat Index Dew Point Humidity Wind Precip. Elev Updated Type
RAWS AHAKHAV PRESERVE AZ, Earp, CA 79 °F 82 °F 70 °F 73% East  at  1 mph 0.00 in / hr 362 ft 5:26 AM PDT MADIS
RAWS RICE VALLEY CA, Vidal, CA 83 °F 83 °F 59 °F 45% SE  at  2 mph 0.00 in / hr 831 ft 5:50 AM PDT MADIS
Pyramid Lane RV Park, Quartzsite, AZ 87.3 °F 88 °F 61 °F 42% SSE  at  0.0 mph - / hr 882 ft 6:24 AM MST Normal
North Valley, Blythe, CA 78.3 °F 81 °F 72 °F 80% East  at  0.0 mph 0.00 in / hr 265 ft 6:28 AM PDT Normal
Apache Loop, Ehrenberg, AZ 81.4 °F 84 °F 67 °F 61% ESE  at  0.0 mph 0.00 in / hr 292 ft 6:29 AM MST Rapid Fire

Show More Stations Show Fewer Stations